EW5790 Weather Reports


Display with metric or nautical units.
time (UTC)temp
F
wind
direction
speed
MPH
gust
MPH
rain 1hr
in
rain 24hr
in
rain mn
in
humidity
%
barometer
mb
20200531173108 72 45 3.0 11.0 0.00 0.00 0.00 42 1023.8
20200531171656 72 180 2.0 13.0 0.00 0.00 0.00 45 1023.9
20200531170047 72 343 3.0 11.0 0.00 0.00 0.00 42 1023.8
20200531164604 72 290 4.0 12.0 0.00 0.00 0.00 49 1023.9
20200531163212 71 90 4.0 17.0 0.00 0.00 0.00 45 1024.0
20200531161555 71 90 5.0 14.0 0.00 0.00 0.00 46 1024.1
20200531160100 70 69 5.0 13.0 0.00 0.00 0.00 44 1024.2
20200531154630 70 108 4.0 10.0 0.00 0.00 0.00 46 1024.1
20200531153111 70 307 3.0 12.0 0.00 0.00 0.00 47 1024.0
20200531151625 70 14 3.0 9.0 0.00 0.00 0.00 51 1023.9
20200531150054 69 47 4.0 9.0 0.00 0.00 0.00 54 1023.9
20200531144619 69 336 4.0 12.0 0.00 0.00 0.00 55 1023.9
20200531143028 68 117 3.0 9.0 0.00 0.00 0.00 55 1023.9
20200531141528 67 5 3.0 9.0 0.00 0.00 0.00 56 1023.8
20200531140038 67 70 4.0 9.0 0.00 0.00 0.00 58 1023.9
20200531134540 66 311 2.0 7.0 0.00 0.00 0.00 60 1023.8
20200531133024 65 126 3.0 11.0 0.00 0.00 0.00 63 1023.7
20200531131534 64 71 3.0 12.0 0.00 0.00 0.00 66 1023.6
20200531130051 63 117 2.0 9.0 0.00 0.00 0.00 70 1023.6
20200531124523 60 50 4.0 7.0 0.00 0.01 0.00 75 1023.5
20200531123013 57 118 2.0 8.0 0.00 0.01 0.00 90 1023.4
20200531121536 56 17 1.0 3.0 0.00 0.01 0.00 95 1023.2
20200531120108 54 43 0.0 2.0 0.00 0.01 0.00 95 1023.0
20200531114545 52 43 0.0 0.0 0.00 0.01 0.00 95 1023.0
20200531111640 49 5 0.0 0.0 0.00 0.01 0.00 95 1022.5
20200531110155 49 5 0.0 0.0 0.00 0.01 0.00 95 1022.3
20200531104644 49 334 0.0 0.0 0.00 0.01 0.00 95 1022.0
20200531103138 49 334 0.0 0.0 0.00 0.01 0.00 95 1021.8
20200531101600 49 334 0.0 0.0 0.00 0.01 0.00 95 1021.5
20200531101514 49 334 0.0 0.0 0.00 0.01 0.00 95 1021.5
20200531100205 50 334 0.0 0.0 0.00 0.01 0.00 95 1021.4
20200531094642 50 334 0.0 0.0 0.00 0.01 0.00 95 1021.2
20200531093009 50 334 0.0 1.0 0.00 0.01 0.00 95 1021.0
20200531091502 50 334 0.0 1.0 0.00 0.01 0.00 95 1020.9
20200531084750 51 334 0.0 0.0 0.00 0.01 0.00 95 1020.7
20200531083228 51 334 0.0 0.0 0.00 0.01 0.00 95 1020.7
20200531081718 51 334 0.0 2.0 0.00 0.01 0.00 94 1020.6
20200531080150 51 334 0.0 1.0 0.00 0.01 0.00 95 1020.4
20200531074659 52 334 0.0 0.0 0.00 0.01 0.00 95 1020.5
20200531073104 52 334 0.0 0.0 0.00 0.01 0.00 94 1020.3
20200531071819 52 334 0.0 0.0 0.00 0.01 0.00 94 1020.3
20200531070106 53 334 0.0 0.0 0.00 0.01 0.00 94 1020.2
20200531064630 53 334 0.0 0.0 0.00 0.01 0.00 94 1020.3
20200531063044 53 334 0.0 0.0 0.00 0.01 0.00 94 1020.2
20200531061602 54 334 0.0 0.0 0.00 0.01 0.00 94 1020.3
20200531060058 54 334 0.0 0.0 0.00 0.01 0.00 94 1020.3
20200531054625 54 334 0.0 0.0 0.00 0.01 0.00 94 1020.2
20200531053119 55 334 0.0 0.0 0.00 0.01 0.00 94 1020.1
20200531051611 55 334 0.0 0.0 0.00 0.01 0.00 94 1020.2
20200531050142 55 334 0.0 0.0 0.00 0.01 0.00 93 1020.3
20200531044622 56 334 0.0 0.0 0.00 0.01 0.00 93 1020.4
20200531043111 56 334 0.0 0.0 0.00 0.01 0.00 93 1020.4
20200531041542 56 334 0.0 0.0 0.00 0.01 0.00 92 1020.1
20200531040019 57 334 0.0 0.0 0.00 0.01 0.00 92 1020.1
20200531034506 57 334 0.0 0.0 0.00 0.01 0.01 91 1020.1
20200531033011 58 334 0.0 0.0 0.00 0.01 0.01 91 1020.0
20200531031503 58 334 0.0 0.0 0.00 0.01 0.01 90 1019.9
20200531030004 59 334 0.0 0.0 0.00 0.01 0.01 90 1019.8
20200531024631 60 334 0.0 0.0 0.00 0.01 0.01 89 1019.6
20200531023413 60 334 0.0 2.0 0.00 0.01 0.01 89 1019.6
20200531021641 61 334 0.0 1.0 0.00 0.01 0.01 88 1019.5
20200531020004 62 334 0.0 2.0 0.00 0.01 0.01 86 1019.3
20200531013130 64 334 0.0 3.0 0.00 0.01 0.01 83 1018.9
20200531011620 66 334 1.0 2.0 0.00 0.01 0.01 79 1018.6
20200531010133 68 334 1.0 3.0 0.00 0.01 0.01 75 1018.2
20200531004608 70 334 0.0 3.0 0.00 0.04 0.01 67 1018.3
20200531003106 72 317 2.0 6.0 0.00 0.04 0.01 60 1018.2
20200531001610 73 320 3.0 6.0 0.00 0.04 0.01 58 1018.0
20200531000110 74 323 2.0 4.0 0.00 0.04 0.01 57 1017.5
20200530234633 74 331 3.0 7.0 0.00 0.04 0.01 56 1017.5
20200530233119 74 309 3.0 8.0 0.00 0.04 0.01 56 1017.3
20200530231736 75 303 4.0 9.0 0.00 0.04 0.01 53 1017.1
20200530230135 77 320 2.0 8.0 0.00 0.04 0.01 53 1017.2
20200530224612 77 291 4.0 10.0 0.00 0.04 0.01 53 1017.2
20200530223250 77 340 3.0 8.0 0.00 0.04 0.01 51 1017.2
20200530221718 76 309 5.0 9.0 0.00 0.04 0.01 54 1017.4
20200530220140 77 319 4.0 9.0 0.00 0.04 0.01 53 1017.5
20200530214622 77 295 9.0 14.0 0.00 0.04 0.01 52 1017.6
20200530213139 77 322 4.0 10.0 0.00 0.04 0.01 51 1017.6
20200530211734 77 303 2.0 9.0 0.00 0.04 0.01 52 1017.5
20200530210213 78 343 6.0 15.0 0.00 0.04 0.01 49 1017.4
20200530204735 77 348 6.0 12.0 0.00 0.04 0.01 51 1017.5
20200530203117 77 316 5.0 11.0 0.00 0.04 0.01 50 1017.4
20200530201618 77 298 4.0 10.0 0.00 0.04 0.01 51 1017.5
20200530200157 77 302 5.0 11.0 0.00 0.04 0.01 48 1017.5
20200530194620 78 325 5.0 15.0 0.00 0.04 0.01 45 1017.4
20200530193141 76 327 4.0 13.0 0.00 0.04 0.01 49 1017.7
20200530191630 78 355 3.0 8.0 0.00 0.04 0.01 50 1017.6
20200530190150 79 306 5.0 11.0 0.00 0.04 0.01 46 1017.7
20200530184638 78 330 2.0 12.0 0.00 0.04 0.01 51 1017.7
20200530183117 77 313 5.0 9.0 0.00 0.04 0.01 50 1017.9
20200530181606 78 282 4.0 11.0 0.00 0.04 0.01 49 1017.9
20200530180123 78 254 6.0 12.0 0.00 0.04 0.01 45 1017.9
20200530174600 78 322 5.0 9.0 0.00 0.04 0.01 48 1018.0